sensor_id;sensor_type;location;lat;lon;timestamp;temperature;humidity
37322;DHT22;23697;48.684;9.032;2023-05-03T00:01:51;9.10;81.30
37322;DHT22;23697;48.684;9.032;2023-05-03T00:04:18;9.10;81.30
37322;DHT22;23697;48.684;9.032;2023-05-03T00:06:44;9.10;81.40
37322;DHT22;23697;48.684;9.032;2023-05-03T00:09:11;9.10;81.40
37322;DHT22;23697;48.684;9.032;2023-05-03T00:11:40;9.10;81.50
37322;DHT22;23697;48.684;9.032;2023-05-03T00:14:06;9.10;81.50
37322;DHT22;23697;48.684;9.032;2023-05-03T00:16:33;9.10;81.60
37322;DHT22;23697;48.684;9.032;2023-05-03T00:19:00;9.10;81.60
37322;DHT22;23697;48.684;9.032;2023-05-03T00:21:27;9.10;81.70
37322;DHT22;23697;48.684;9.032;2023-05-03T00:23:54;9.00;81.90
37322;DHT22;23697;48.684;9.032;2023-05-03T00:26:20;9.00;81.90
37322;DHT22;23697;48.684;9.032;2023-05-03T00:28:49;9.00;82.00
37322;DHT22;23697;48.684;9.032;2023-05-03T00:31:15;9.00;82.10
37322;DHT22;23697;48.684;9.032;2023-05-03T00:33:42;8.90;82.10
37322;DHT22;23697;48.684;9.032;2023-05-03T00:36:09;8.90;82.20
37322;DHT22;23697;48.684;9.032;2023-05-03T00:38:36;8.80;82.30
37322;DHT22;23697;48.684;9.032;2023-05-03T00:41:03;8.80;82.40
37322;DHT22;23697;48.684;9.032;2023-05-03T00:43:31;8.80;82.50
37322;DHT22;23697;48.684;9.032;2023-05-03T00:45:59;8.80;82.50
37322;DHT22;23697;48.684;9.032;2023-05-03T00:48:27;8.80;82.60
37322;DHT22;23697;48.684;9.032;2023-05-03T00:50:54;8.70;82.60
37322;DHT22;23697;48.684;9.032;2023-05-03T00:53:22;8.70;82.70
37322;DHT22;23697;48.684;9.032;2023-05-03T00:55:49;8.70;82.80
37322;DHT22;23697;48.684;9.032;2023-05-03T00:58:17;8.60;82.90
37322;DHT22;23697;48.684;9.032;2023-05-03T01:00:44;8.60;83.00
37322;DHT22;23697;48.684;9.032;2023-05-03T01:03:12;8.50;83.00
37322;DHT22;23697;48.684;9.032;2023-05-03T01:05:40;8.40;83.20
37322;DHT22;23697;48.684;9.032;2023-05-03T01:08:10;8.40;83.40
37322;DHT22;23697;48.684;9.032;2023-05-03T01:10:39;8.40;83.60
37322;DHT22;23697;48.684;9.032;2023-05-03T01:13:09;8.40;83.70
37322;DHT22;23697;48.684;9.032;2023-05-03T01:15:43;8.30;83.70
37322;DHT22;23697;48.684;9.032;2023-05-03T01:18:15;8.20;83.90
37322;DHT22;23697;48.684;9.032;2023-05-03T01:20:46;8.10;84.10
37322;DHT22;23697;48.684;9.032;2023-05-03T01:23:14;8.10;84.30
37322;DHT22;23697;48.684;9.032;2023-05-03T01:25:45;8.10;84.40
37322;DHT22;23697;48.684;9.032;2023-05-03T01:28:11;8.10;84.50
37322;DHT22;23697;48.684;9.032;2023-05-03T01:30:38;8.00;84.60
37322;DHT22;23697;48.684;9.032;2023-05-03T01:33:09;8.00;84.70
37322;DHT22;23697;48.684;9.032;2023-05-03T01:35:39;8.00;84.80
37322;DHT22;23697;48.684;9.032;2023-05-03T01:38:06;8.00;84.80
37322;DHT22;23697;48.684;9.032;2023-05-03T01:40:35;7.90;84.80
37322;DHT22;23697;48.684;9.032;2023-05-03T01:43:05;7.90;84.90
37322;DHT22;23697;48.684;9.032;2023-05-03T01:45:32;7.80;84.90
37322;DHT22;23697;48.684;9.032;2023-05-03T01:47:59;7.70;85.10
37322;DHT22;23697;48.684;9.032;2023-05-03T01:50:26;7.70;85.20
37322;DHT22;23697;48.684;9.032;2023-05-03T01:52:52;7.70;85.20
37322;DHT22;23697;48.684;9.032;2023-05-03T01:55:19;7.60;85.30
37322;DHT22;23697;48.684;9.032;2023-05-03T01:57:46;7.60;85.30
37322;DHT22;23697;48.684;9.032;2023-05-03T02:00:14;7.60;85.30
37322;DHT22;23697;48.684;9.032;2023-05-03T02:02:41;7.50;85.30
37322;DHT22;23697;48.684;9.032;2023-05-03T02:05:08;7.40;85.40
37322;DHT22;23697;48.684;9.032;2023-05-03T02:07:35;7.40;85.40
37322;DHT22;23697;48.684;9.032;2023-05-03T02:10:02;7.30;85.30
37322;DHT22;23697;48.684;9.032;2023-05-03T02:12:29;7.20;85.40
37322;DHT22;23697;48.684;9.032;2023-05-03T02:14:56;7.10;85.50
37322;DHT22;23697;48.684;9.032;2023-05-03T02:17:24;7.10;85.60
37322;DHT22;23697;48.684;9.032;2023-05-03T02:19:51;7.10;85.60
37322;DHT22;23697;48.684;9.032;2023-05-03T02:22:18;7.10;85.70
37322;DHT22;23697;48.684;9.032;2023-05-03T02:24:45;7.00;85.80
37322;DHT22;23697;48.684;9.032;2023-05-03T02:27:11;6.90;85.90
37322;DHT22;23697;48.684;9.032;2023-05-03T02:29:38;6.90;85.90
37322;DHT22;23697;48.684;9.032;2023-05-03T02:32:05;6.90;85.90
37322;DHT22;23697;48.684;9.032;2023-05-03T02:34:33;6.80;85.90
37322;DHT22;23697;48.684;9.032;2023-05-03T02:36:59;6.70;86.00
37322;DHT22;23697;48.684;9.032;2023-05-03T02:39:26;6.70;86.00
37322;DHT22;23697;48.684;9.032;2023-05-03T02:41:53;6.70;86.20
37322;DHT22;23697;48.684;9.032;2023-05-03T02:44:20;6.60;86.20
37322;DHT22;23697;48.684;9.032;2023-05-03T02:46:46;6.60;86.20
37322;DHT22;23697;48.684;9.032;2023-05-03T02:49:13;6.50;86.20
37322;DHT22;23697;48.684;9.032;2023-05-03T02:51:41;6.50;86.20
37322;DHT22;23697;48.684;9.032;2023-05-03T02:54:08;6.30;86.20
37322;DHT22;23697;48.684;9.032;2023-05-03T02:56:34;6.30;86.40
37322;DHT22;23697;48.684;9.032;2023-05-03T02:59:01;6.30;86.40
37322;DHT22;23697;48.684;9.032;2023-05-03T03:01:27;6.30;86.40
37322;DHT22;23697;48.684;9.032;2023-05-03T03:03:54;6.30;86.50
37322;DHT22;23697;48.684;9.032;2023-05-03T03:06:21;6.20;86.40
37322;DHT22;23697;48.684;9.032;2023-05-03T03:08:49;6.10;86.50
37322;DHT22;23697;48.684;9.032;2023-05-03T03:11:16;6.10;86.50
37322;DHT22;23697;48.684;9.032;2023-05-03T03:13:42;6.10;86.60
37322;DHT22;23697;48.684;9.032;2023-05-03T03:16:09;6.10;86.60
37322;DHT22;23697;48.684;9.032;2023-05-03T03:18:36;6.00;86.60
37322;DHT22;23697;48.684;9.032;2023-05-03T03:21:03;6.10;86.70
37322;DHT22;23697;48.684;9.032;2023-05-03T03:23:30;5.90;86.70
37322;DHT22;23697;48.684;9.032;2023-05-03T03:25:58;6.00;86.70
37322;DHT22;23697;48.684;9.032;2023-05-03T03:28:25;5.90;86.70
37322;DHT22;23697;48.684;9.032;2023-05-03T03:30:52;5.90;86.70
37322;DHT22;23697;48.684;9.032;2023-05-03T03:33:18;6.00;86.70
37322;DHT22;23697;48.684;9.032;2023-05-03T03:35:45;5.90;86.70
37322;DHT22;23697;48.684;9.032;2023-05-03T03:38:12;5.80;86.80
37322;DHT22;23697;48.684;9.032;2023-05-03T03:40:39;5.80;86.70
37322;DHT22;23697;48.684;9.032;2023-05-03T03:43:07;5.90;86.80
37322;DHT22;23697;48.684;9.032;2023-05-03T03:45:34;5.80;86.80
37322;DHT22;23697;48.684;9.032;2023-05-03T03:48:01;5.80;86.90
37322;DHT22;23697;48.684;9.032;2023-05-03T03:50:27;5.80;86.90
37322;DHT22;23697;48.684;9.032;2023-05-03T03:52:54;5.80;86.90
37322;DHT22;23697;48.684;9.032;2023-05-03T03:55:21;5.80;87.10
37322;DHT22;23697;48.684;9.032;2023-05-03T03:57:47;5.80;87.10
37322;DHT22;23697;48.684;9.032;2023-05-03T04:00:16;5.80;87.10
37322;DHT22;23697;48.684;9.032;2023-05-03T04:02:42;5.80;87.10
37322;DHT22;23697;48.684;9.032;2023-05-03T04:05:09;5.80;87.10
37322;DHT22;23697;48.684;9.032;2023-05-03T04:07:36;5.80;87.20
37322;DHT22;23697;48.684;9.032;2023-05-03T04:10:02;5.80;87.30
37322;DHT22;23697;48.684;9.032;2023-05-03T04:12:29;5.90;87.40
37322;DHT22;23697;48.684;9.032;2023-05-03T04:14:56;5.90;87.40
37322;DHT22;23697;48.684;9.032;2023-05-03T04:17:24;6.00;87.40
37322;DHT22;23697;48.684;9.032;2023-05-03T04:19:50;6.00;87.50
37322;DHT22;23697;48.684;9.032;2023-05-03T04:22:17;6.10;87.50
37322;DHT22;23697;48.684;9.032;2023-05-03T04:24:44;6.20;87.60
37322;DHT22;23697;48.684;9.032;2023-05-03T04:27:12;6.40;87.70
37322;DHT22;23697;48.684;9.032;2023-05-03T04:29:39;6.40;87.80
37322;DHT22;23697;48.684;9.032;2023-05-03T04:32:06;6.50;87.90
37322;DHT22;23697;48.684;9.032;2023-05-03T04:34:35;6.60;87.90
37322;DHT22;23697;48.684;9.032;2023-05-03T04:37:02;6.70;87.90
37322;DHT22;23697;48.684;9.032;2023-05-03T04:39:29;6.80;87.90
37322;DHT22;23697;48.684;9.032;2023-05-03T04:41:56;6.90;88.00
37322;DHT22;23697;48.684;9.032;2023-05-03T04:44:23;6.90;88.00
37322;DHT22;23697;48.684;9.032;2023-05-03T04:46:50;6.90;87.90
37322;DHT22;23697;48.684;9.032;2023-05-03T04:49:17;7.00;87.90
37322;DHT22;23697;48.684;9.032;2023-05-03T04:51:45;7.10;87.90
37322;DHT22;23697;48.684;9.032;2023-05-03T04:54:11;7.10;87.90
37322;DHT22;23697;48.684;9.032;2023-05-03T04:56:38;7.20;87.90
37322;DHT22;23697;48.684;9.032;2023-05-03T04:59:05;7.20;87.80
37322;DHT22;23697;48.684;9.032;2023-05-03T05:01:31;7.30;87.80
37322;DHT22;23697;48.684;9.032;2023-05-03T05:03:58;7.40;87.80
37322;DHT22;23697;48.684;9.032;2023-05-03T05:06:25;7.40;87.70
37322;DHT22;23697;48.684;9.032;2023-05-03T05:08:53;7.40;87.70
37322;DHT22;23697;48.684;9.032;2023-05-03T05:11:19;7.40;87.60
37322;DHT22;23697;48.684;9.032;2023-05-03T05:13:46;7.40;87.60
37322;DHT22;23697;48.684;9.032;2023-05-03T05:16:13;7.40;87.50
37322;DHT22;23697;48.684;9.032;2023-05-03T05:18:40;7.50;87.50
37322;DHT22;23697;48.684;9.032;2023-05-03T05:21:06;7.40;87.50
37322;DHT22;23697;48.684;9.032;2023-05-03T05:23:33;7.50;87.50
37322;DHT22;23697;48.684;9.032;2023-05-03T05:26:02;7.40;87.50
37322;DHT22;23697;48.684;9.032;2023-05-03T05:28:29;7.60;87.50
37322;DHT22;23697;48.684;9.032;2023-05-03T05:30:55;7.60;87.40
37322;DHT22;23697;48.684;9.032;2023-05-03T05:33:22;7.60;87.30
37322;DHT22;23697;48.684;9.032;2023-05-03T05:35:49;7.60;87.30
37322;DHT22;23697;48.684;9.032;2023-05-03T05:38:15;7.60;87.30
37322;DHT22;23697;48.684;9.032;2023-05-03T05:40:42;7.70;87.30
37322;DHT22;23697;48.684;9.032;2023-05-03T05:43:11;7.80;87.20
37322;DHT22;23697;48.684;9.032;2023-05-03T05:45:38;7.90;87.10
37322;DHT22;23697;48.684;9.032;2023-05-03T05:48:05;7.90;87.20
37322;DHT22;23697;48.684;9.032;2023-05-03T05:50:32;8.10;87.20
37322;DHT22;23697;48.684;9.032;2023-05-03T05:52:59;8.20;87.10
37322;DHT22;23697;48.684;9.032;2023-05-03T05:55:26;8.40;87.00
37322;DHT22;23697;48.684;9.032;2023-05-03T05:57:52;8.40;86.90
37322;DHT22;23697;48.684;9.032;2023-05-03T06:00:21;8.50;86.80
37322;DHT22;23697;48.684;9.032;2023-05-03T06:02:48;8.60;86.90
37322;DHT22;23697;48.684;9.032;2023-05-03T06:05:15;8.60;86.70
37322;DHT22;23697;48.684;9.032;2023-05-03T06:07:42;8.50;86.50
37322;DHT22;23697;48.684;9.032;2023-05-03T06:10:09;8.60;86.60
37322;DHT22;23697;48.684;9.032;2023-05-03T06:12:36;8.60;86.50
37322;DHT22;23697;48.684;9.032;2023-05-03T06:15:03;8.70;86.50
37322;DHT22;23697;48.684;9.032;2023-05-03T06:17:31;8.70;86.30
37322;DHT22;23697;48.684;9.032;2023-05-03T06:19:58;8.80;86.10
37322;DHT22;23697;48.684;9.032;2023-05-03T06:22:25;8.60;85.90
37322;DHT22;23697;48.684;9.032;2023-05-03T06:24:51;8.80;86.20
37322;DHT22;23697;48.684;9.032;2023-05-03T06:27:18;9.10;86.30
37322;DHT22;23697;48.684;9.032;2023-05-03T06:29:45;9.10;85.90
37322;DHT22;23697;48.684;9.032;2023-05-03T06:32:14;9.20;85.60
37322;DHT22;23697;48.684;9.032;2023-05-03T06:34:42;9.40;85.40
37322;DHT22;23697;48.684;9.032;2023-05-03T06:37:08;9.60;85.30
37322;DHT22;23697;48.684;9.032;2023-05-03T06:39:35;9.60;84.90
37322;DHT22;23697;48.684;9.032;2023-05-03T06:42:02;9.80;84.90
37322;DHT22;23697;48.684;9.032;2023-05-03T06:44:29;9.80;83.90
37322;DHT22;23697;48.684;9.032;2023-05-03T06:46:55;9.70;83.60
37322;DHT22;23697;48.684;9.032;2023-05-03T06:49:22;9.60;83.70
37322;DHT22;23697;48.684;9.032;2023-05-03T06:51:50;9.80;84.10
37322;DHT22;23697;48.684;9.032;2023-05-03T06:54:16;9.90;84.10
37322;DHT22;23697;48.684;9.032;2023-05-03T06:56:44;10.10;83.90
37322;DHT22;23697;48.684;9.032;2023-05-03T06:59:11;10.20;83.30
37322;DHT22;23697;48.684;9.032;2023-05-03T07:01:37;10.30;83.00
37322;DHT22;23697;48.684;9.032;2023-05-03T07:04:04;10.50;82.90
37322;DHT22;23697;48.684;9.032;2023-05-03T07:06:31;10.50;82.60
37322;DHT22;23697;48.684;9.032;2023-05-03T07:08:59;10.40;81.70
37322;DHT22;23697;48.684;9.032;2023-05-03T07:11:25;10.30;81.50
37322;DHT22;23697;48.684;9.032;2023-05-03T07:13:52;10.20;81.70
37322;DHT22;23697;48.684;9.032;2023-05-03T07:16:19;10.30;82.00
37322;DHT22;23697;48.684;9.032;2023-05-03T07:18:46;10.50;82.50
37322;DHT22;23697;48.684;9.032;2023-05-03T07:21:13;10.60;82.60
37322;DHT22;23697;48.684;9.032;2023-05-03T07:23:40;11.10;82.50
37322;DHT22;23697;48.684;9.032;2023-05-03T07:26:08;11.40;81.10
37322;DHT22;23697;48.684;9.032;2023-05-03T07:28:35;11.50;80.80
37322;DHT22;23697;48.684;9.032;2023-05-03T07:31:01;11.50;79.70
37322;DHT22;23697;48.684;9.032;2023-05-03T07:33:28;11.60;79.90
37322;DHT22;23697;48.684;9.032;2023-05-03T07:35:55;11.70;79.20
37322;DHT22;23697;48.684;9.032;2023-05-03T07:38:22;11.70;78.00
37322;DHT22;23697;48.684;9.032;2023-05-03T07:40:49;11.60;78.20
37322;DHT22;23697;48.684;9.032;2023-05-03T07:43:17;11.60;77.70
37322;DHT22;23697;48.684;9.032;2023-05-03T07:45:45;11.60;78.40
37322;DHT22;23697;48.684;9.032;2023-05-03T07:48:12;11.80;79.10
37322;DHT22;23697;48.684;9.032;2023-05-03T07:50:40;12.20;77.80
37322;DHT22;23697;48.684;9.032;2023-05-03T07:53:07;12.70;77.40
37322;DHT22;23697;48.684;9.032;2023-05-03T07:55:33;13.30;77.10
37322;DHT22;23697;48.684;9.032;2023-05-03T07:58:00;13.60;74.20
37322;DHT22;23697;48.684;9.032;2023-05-03T08:00:29;13.60;72.80
37322;DHT22;23697;48.684;9.032;2023-05-03T08:02:56;13.70;73.50
37322;DHT22;23697;48.684;9.032;2023-05-03T08:05:22;13.80;71.70
37322;DHT22;23697;48.684;9.032;2023-05-03T08:07:49;14.00;72.90
37322;DHT22;23697;48.684;9.032;2023-05-03T08:10:16;14.40;72.00
37322;DHT22;23697;48.684;9.032;2023-05-03T08:12:43;14.80;70.80
37322;DHT22;23697;48.684;9.032;2023-05-03T08:15:10;15.10;69.70
37322;DHT22;23697;48.684;9.032;2023-05-03T08:17:42;15.30;68.80
37322;DHT22;23697;48.684;9.032;2023-05-03T08:20:09;15.40;67.90
37322;DHT22;23697;48.684;9.032;2023-05-03T08:22:36;15.40;67.80
37322;DHT22;23697;48.684;9.032;2023-05-03T08:25:04;15.60;68.00
37322;DHT22;23697;48.684;9.032;2023-05-03T08:27:32;15.10;67.00
37322;DHT22;23697;48.684;9.032;2023-05-03T08:29:58;15.00;68.20
37322;DHT22;23697;48.684;9.032;2023-05-03T08:32:25;15.10;66.90
37322;DHT22;23697;48.684;9.032;2023-05-03T08:34:54;15.30;68.60
37322;DHT22;23697;48.684;9.032;2023-05-03T08:37:21;15.40;66.70
37322;DHT22;23697;48.684;9.032;2023-05-03T08:39:47;15.40;64.90
37322;DHT22;23697;48.684;9.032;2023-05-03T08:42:14;14.80;65.90
37322;DHT22;23697;48.684;9.032;2023-05-03T08:44:43;14.90;66.60
37322;DHT22;23697;48.684;9.032;2023-05-03T08:47:10;15.30;66.90
37322;DHT22;23697;48.684;9.032;2023-05-03T08:49:39;15.60;65.70
37322;DHT22;23697;48.684;9.032;2023-05-03T08:52:08;15.50;64.20
37322;DHT22;23697;48.684;9.032;2023-05-03T08:54:35;15.60;64.80
37322;DHT22;23697;48.684;9.032;2023-05-03T08:57:02;15.90;64.90
37322;DHT22;23697;48.684;9.032;2023-05-03T08:59:29;16.10;63.60
37322;DHT22;23697;48.684;9.032;2023-05-03T09:01:55;16.10;63.80
37322;DHT22;23697;48.684;9.032;2023-05-03T09:04:30;16.10;64.30
37322;DHT22;23697;48.684;9.032;2023-05-03T09:07:05;16.10;65.10
37322;DHT22;23697;48.684;9.032;2023-05-03T09:09:33;16.40;64.00
37322;DHT22;23697;48.684;9.032;2023-05-03T09:12:01;16.60;62.10
37322;DHT22;23697;48.684;9.032;2023-05-03T09:14:27;16.60;61.10
37322;DHT22;23697;48.684;9.032;2023-05-03T09:16:54;16.90;60.40
37322;DHT22;23697;48.684;9.032;2023-05-03T09:19:21;17.30;60.60
37322;DHT22;23697;48.684;9.032;2023-05-03T09:21:48;17.20;61.70
37322;DHT22;23697;48.684;9.032;2023-05-03T09:24:16;16.90;58.50
37322;DHT22;23697;48.684;9.032;2023-05-03T09:26:45;17.10;61.50
37322;DHT22;23697;48.684;9.032;2023-05-03T09:29:25;17.60;60.50
37322;DHT22;23697;48.684;9.032;2023-05-03T09:31:57;17.80;60.20
37322;DHT22;23697;48.684;9.032;2023-05-03T09:34:23;17.20;59.20
37322;DHT22;23697;48.684;9.032;2023-05-03T09:36:50;17.10;57.00
37322;DHT22;23697;48.684;9.032;2023-05-03T09:39:17;16.60;57.40
37322;DHT22;23697;48.684;9.032;2023-05-03T09:41:45;16.20;59.70
37322;DHT22;23697;48.684;9.032;2023-05-03T09:44:12;16.30;60.10
37322;DHT22;23697;48.684;9.032;2023-05-03T09:46:39;16.70;62.70
37322;DHT22;23697;48.684;9.032;2023-05-03T09:49:25;16.60;58.80
37322;DHT22;23697;48.684;9.032;2023-05-03T09:51:52;16.20;59.60
37322;DHT22;23697;48.684;9.032;2023-05-03T09:54:19;16.30;60.90
37322;DHT22;23697;48.684;9.032;2023-05-03T09:56:48;16.70;61.70
37322;DHT22;23697;48.684;9.032;2023-05-03T09:59:15;16.70;59.60
37322;DHT22;23697;48.684;9.032;2023-05-03T10:01:41;16.70;60.40
37322;DHT22;23697;48.684;9.032;2023-05-03T10:04:08;16.50;59.20
37322;DHT22;23697;48.684;9.032;2023-05-03T10:06:37;16.10;59.90
37322;DHT22;23697;48.684;9.032;2023-05-03T10:09:07;15.90;60.90
37322;DHT22;23697;48.684;9.032;2023-05-03T10:11:38;16.00;61.50
37322;DHT22;23697;48.684;9.032;2023-05-03T10:14:09;16.00;60.60
37322;DHT22;23697;48.684;9.032;2023-05-03T10:16:37;16.30;63.00
37322;DHT22;23697;48.684;9.032;2023-05-03T10:19:06;16.80;60.90
37322;DHT22;23697;48.684;9.032;2023-05-03T10:21:37;16.80;59.40
37322;DHT22;23697;48.684;9.032;2023-05-03T10:24:10;16.60;58.60
37322;DHT22;23697;48.684;9.032;2023-05-03T10:26:41;16.20;60.50
37322;DHT22;23697;48.684;9.032;2023-05-03T10:31:54;16.00;60.60
37322;DHT22;23697;48.684;9.032;2023-05-03T10:34:21;16.40;61.90
37322;DHT22;23697;48.684;9.032;2023-05-03T10:36:49;17.00;57.10
37322;DHT22;23697;48.684;9.032;2023-05-03T10:39:17;17.30;57.60
37322;DHT22;23697;48.684;9.032;2023-05-03T10:41:44;17.00;56.40
37322;DHT22;23697;48.684;9.032;2023-05-03T10:44:24;16.60;56.50
37322;DHT22;23697;48.684;9.032;2023-05-03T10:46:51;16.20;59.30
37322;DHT22;23697;48.684;9.032;2023-05-03T10:49:20;16.60;61.70
37322;DHT22;23697;48.684;9.032;2023-05-03T10:51:47;17.20;59.20
37322;DHT22;23697;48.684;9.032;2023-05-03T10:54:14;17.40;56.00
37322;DHT22;23697;48.684;9.032;2023-05-03T10:56:46;17.40;53.60
37322;DHT22;23697;48.684;9.032;2023-05-03T10:59:12;17.10;53.80
37322;DHT22;23697;48.684;9.032;2023-05-03T11:01:39;17.00;54.60
37322;DHT22;23697;48.684;9.032;2023-05-03T11:04:06;16.80;53.60
37322;DHT22;23697;48.684;9.032;2023-05-03T11:06:37;17.10;54.90
37322;DHT22;23697;48.684;9.032;2023-05-03T11:09:06;17.30;56.90
37322;DHT22;23697;48.684;9.032;2023-05-03T11:11:34;17.20;54.20
37322;DHT22;23697;48.684;9.032;2023-05-03T11:14:01;16.80;54.70
37322;DHT22;23697;48.684;9.032;2023-05-03T11:16:27;16.50;56.30
37322;DHT22;23697;48.684;9.032;2023-05-03T11:18:55;16.50;56.90
37322;DHT22;23697;48.684;9.032;2023-05-03T11:21:22;17.10;56.10
37322;DHT22;23697;48.684;9.032;2023-05-03T11:23:50;17.90;54.80
37322;DHT22;23697;48.684;9.032;2023-05-03T11:26:16;18.30;52.50
37322;DHT22;23697;48.684;9.032;2023-05-03T11:28:47;18.20;51.80
37322;DHT22;23697;48.684;9.032;2023-05-03T11:31:14;18.20;52.50
37322;DHT22;23697;48.684;9.032;2023-05-03T11:33:41;17.80;52.00
37322;DHT22;23697;48.684;9.032;2023-05-03T11:36:07;17.50;54.90
37322;DHT22;23697;48.684;9.032;2023-05-03T11:38:35;17.60;52.80
37322;DHT22;23697;48.684;9.032;2023-05-03T11:41:10;17.70;51.40
37322;DHT22;23697;48.684;9.032;2023-05-03T11:43:39;17.60;53.10
37322;DHT22;23697;48.684;9.032;2023-05-03T11:46:05;17.70;53.50
37322;DHT22;23697;48.684;9.032;2023-05-03T11:48:33;18.10;53.50
37322;DHT22;23697;48.684;9.032;2023-05-03T11:51:05;17.60;52.70
37322;DHT22;23697;48.684;9.032;2023-05-03T11:53:32;17.10;54.00
37322;DHT22;23697;48.684;9.032;2023-05-03T11:55:59;16.90;55.90
37322;DHT22;23697;48.684;9.032;2023-05-03T11:58:29;17.00;55.40
37322;DHT22;23697;48.684;9.032;2023-05-03T12:00:56;17.60;55.00
37322;DHT22;23697;48.684;9.032;2023-05-03T12:03:23;18.30;53.00
37322;DHT22;23697;48.684;9.032;2023-05-03T12:05:50;18.40;50.70
37322;DHT22;23697;48.684;9.032;2023-05-03T12:08:18;17.80;49.70
37322;DHT22;23697;48.684;9.032;2023-05-03T12:10:45;17.40;51.50
37322;DHT22;23697;48.684;9.032;2023-05-03T12:13:12;17.50;52.60
37322;DHT22;23697;48.684;9.032;2023-05-03T12:15:40;17.60;52.50
37322;DHT22;23697;48.684;9.032;2023-05-03T12:18:10;17.60;52.70
37322;DHT22;23697;48.684;9.032;2023-05-03T12:20:37;17.50;50.30
37322;DHT22;23697;48.684;9.032;2023-05-03T12:23:05;17.30;51.60
37322;DHT22;23697;48.684;9.032;2023-05-03T12:25:32;17.70;52.10
37322;DHT22;23697;48.684;9.032;2023-05-03T12:27:59;18.20;49.50
37322;DHT22;23697;48.684;9.032;2023-05-03T12:30:27;18.70;49.50
37322;DHT22;23697;48.684;9.032;2023-05-03T12:32:55;19.00;49.30
37322;DHT22;23697;48.684;9.032;2023-05-03T12:35:22;19.20;48.50
37322;DHT22;23697;48.684;9.032;2023-05-03T12:37:49;19.30;47.80
37322;DHT22;23697;48.684;9.032;2023-05-03T12:40:16;18.90;46.70
37322;DHT22;23697;48.684;9.032;2023-05-03T12:42:44;18.50;46.70
37322;DHT22;23697;48.684;9.032;2023-05-03T12:45:11;18.10;48.10
37322;DHT22;23697;48.684;9.032;2023-05-03T12:47:39;18.10;49.50
37322;DHT22;23697;48.684;9.032;2023-05-03T12:50:07;18.70;48.20
37322;DHT22;23697;48.684;9.032;2023-05-03T12:52:35;19.10;47.70
37322;DHT22;23697;48.684;9.032;2023-05-03T12:55:02;19.10;47.40
37322;DHT22;23697;48.684;9.032;2023-05-03T12:57:29;19.00;46.60
37322;DHT22;23697;48.684;9.032;2023-05-03T12:59:56;19.10;46.50
37322;DHT22;23697;48.684;9.032;2023-05-03T13:02:23;19.00;47.50
37322;DHT22;23697;48.684;9.032;2023-05-03T13:04:49;19.10;48.70
37322;DHT22;23697;48.684;9.032;2023-05-03T13:07:21;19.40;50.00
37322;DHT22;23697;48.684;9.032;2023-05-03T13:09:50;19.70;47.40
37322;DHT22;23697;48.684;9.032;2023-05-03T13:12:17;19.80;42.10
37322;DHT22;23697;48.684;9.032;2023-05-03T13:14:45;19.60;42.80
37322;DHT22;23697;48.684;9.032;2023-05-03T13:17:12;19.90;44.60
37322;DHT22;23697;48.684;9.032;2023-05-03T13:19:39;20.40;45.70
37322;DHT22;23697;48.684;9.032;2023-05-03T13:22:06;20.90;43.30
37322;DHT22;23697;48.684;9.032;2023-05-03T13:24:34;21.10;44.20
37322;DHT22;23697;48.684;9.032;2023-05-03T13:27:01;20.50;43.10
37322;DHT22;23697;48.684;9.032;2023-05-03T13:29:28;19.60;44.20
37322;DHT22;23697;48.684;9.032;2023-05-03T13:31:54;18.80;45.00
37322;DHT22;23697;48.684;9.032;2023-05-03T13:34:21;18.30;46.50
37322;DHT22;23697;48.684;9.032;2023-05-03T13:36:48;18.20;47.80
37322;DHT22;23697;48.684;9.032;2023-05-03T13:39:15;18.50;48.80
37322;DHT22;23697;48.684;9.032;2023-05-03T13:41:44;19.10;45.00
37322;DHT22;23697;48.684;9.032;2023-05-03T13:44:11;19.60;43.40
37322;DHT22;23697;48.684;9.032;2023-05-03T13:46:38;19.70;43.30
37322;DHT22;23697;48.684;9.032;2023-05-03T13:49:05;19.50;43.90
37322;DHT22;23697;48.684;9.032;2023-05-03T13:51:32;19.00;44.20
37322;DHT22;23697;48.684;9.032;2023-05-03T13:53:59;18.60;45.60
37322;DHT22;23697;48.684;9.032;2023-05-03T13:56:26;18.10;44.90
37322;DHT22;23697;48.684;9.032;2023-05-03T13:58:54;17.80;45.10
37322;DHT22;23697;48.684;9.032;2023-05-03T14:01:21;18.10;46.50
37322;DHT22;23697;48.684;9.032;2023-05-03T14:03:49;18.70;42.80
37322;DHT22;23697;48.684;9.032;2023-05-03T14:06:15;19.20;43.40
37322;DHT22;23697;48.684;9.032;2023-05-03T14:08:42;19.80;45.00
37322;DHT22;23697;48.684;9.032;2023-05-03T14:11:12;20.40;43.90
37322;DHT22;23697;48.684;9.032;2023-05-03T14:13:39;20.50;42.90
37322;DHT22;23697;48.684;9.032;2023-05-03T14:16:10;20.10;40.60
37322;DHT22;23697;48.684;9.032;2023-05-03T14:18:40;20.10;41.70
37322;DHT22;23697;48.684;9.032;2023-05-03T14:21:07;19.60;42.70
37322;DHT22;23697;48.684;9.032;2023-05-03T14:23:34;19.30;41.90
37322;DHT22;23697;48.684;9.032;2023-05-03T14:26:00;19.30;43.00
37322;DHT22;23697;48.684;9.032;2023-05-03T14:28:29;19.50;41.50
37322;DHT22;23697;48.684;9.032;2023-05-03T14:30:56;19.80;41.60
37322;DHT22;23697;48.684;9.032;2023-05-03T14:33:24;20.00;40.00
37322;DHT22;23697;48.684;9.032;2023-05-03T14:35:50;19.70;41.30
37322;DHT22;23697;48.684;9.032;2023-05-03T14:38:17;19.70;42.00
37322;DHT22;23697;48.684;9.032;2023-05-03T14:40:44;19.90;42.70
37322;DHT22;23697;48.684;9.032;2023-05-03T14:43:10;20.20;42.60
37322;DHT22;23697;48.684;9.032;2023-05-03T14:45:37;20.60;42.10
37322;DHT22;23697;48.684;9.032;2023-05-03T14:48:04;20.70;40.80
37322;DHT22;23697;48.684;9.032;2023-05-03T14:50:32;20.80;40.20
37322;DHT22;23697;48.684;9.032;2023-05-03T14:52:58;20.60;40.40
37322;DHT22;23697;48.684;9.032;2023-05-03T14:55:25;20.50;40.20
37322;DHT22;23697;48.684;9.032;2023-05-03T14:57:53;20.20;40.50
37322;DHT22;23697;48.684;9.032;2023-05-03T15:00:19;20.10;40.10
37322;DHT22;23697;48.684;9.032;2023-05-03T15:02:46;19.90;41.40
37322;DHT22;23697;48.684;9.032;2023-05-03T15:05:17;19.60;41.70
37322;DHT22;23697;48.684;9.032;2023-05-03T15:07:45;19.50;42.00
37322;DHT22;23697;48.684;9.032;2023-05-03T15:10:12;19.70;43.10
37322;DHT22;23697;48.684;9.032;2023-05-03T15:12:39;19.90;41.90
37322;DHT22;23697;48.684;9.032;2023-05-03T15:15:06;20.20;42.30
37322;DHT22;23697;48.684;9.032;2023-05-03T15:17:33;20.40;42.10
37322;DHT22;23697;48.684;9.032;2023-05-03T15:20:00;20.60;41.30
37322;DHT22;23697;48.684;9.032;2023-05-03T15:22:28;20.80;41.60
37322;DHT22;23697;48.684;9.032;2023-05-03T15:24:58;20.60;40.80
37322;DHT22;23697;48.684;9.032;2023-05-03T15:27:25;20.20;38.90
37322;DHT22;23697;48.684;9.032;2023-05-03T15:29:55;19.90;41.70
37322;DHT22;23697;48.684;9.032;2023-05-03T15:32:21;19.50;41.60
37322;DHT22;23697;48.684;9.032;2023-05-03T15:34:49;19.10;42.10
37322;DHT22;23697;48.684;9.032;2023-05-03T15:37:16;18.60;42.90
37322;DHT22;23697;48.684;9.032;2023-05-03T15:39:42;18.50;44.00
37322;DHT22;23697;48.684;9.032;2023-05-03T15:42:18;18.60;42.40